Time;durP1;ratioP1;P1;durP2;ratioP2;P2;SDS_P1;SDS_P2;PMS_P1;PMS_P2;Temp;Humidity;BMP_temperature;BMP_pressure;BME280_temperature;BME280_humidity;BME280_pressure;Samples;Min_cycle;Max_cycle;Signal;HPM_P1;HPM_P2
2021/11/09 00:02:22;;;;;;;5.03;4.20;;;;;;;8.51;73.90;101763.25;4993024;28;20034;-42
2021/11/09 00:04:52;;;;;;;4.47;4.07;;;;;;;8.52;74.15;101769.34;4993135;28;20031;-42
2021/11/09 00:10:06;;;;;;;4.22;3.83;;;;;;;8.52;74.12;101775.50;4994302;28;20124;-42
2021/11/09 00:12:38;;;;;;;5.47;4.07;;;;;;;8.51;74.06;101773.75;4992420;28;20022;-42
2021/11/09 00:15:07;;;;;;;4.28;3.88;;;;;;;8.50;74.11;101771.09;4992755;28;20026;-42
2021/11/09 00:17:33;;;;;;;4.80;3.35;;;;;;;8.50;74.10;101777.22;4992536;28;20025;-42
2021/11/09 00:19:58;;;;;;;4.63;3.90;;;;;;;8.51;74.12;101767.59;4992373;28;20402;-42
2021/11/09 00:22:25;;;;;;;4.57;3.72;;;;;;;8.51;74.06;101775.50;4992788;28;20026;-42
2021/11/09 00:24:50;;;;;;;5.75;4.20;;;;;;;8.50;74.16;101766.69;4998409;28;20109;-42
2021/11/09 00:27:16;;;;;;;5.50;4.18;;;;;;;8.49;73.98;101775.47;4991568;28;20113;-42
2021/11/09 00:29:41;;;;;;;5.07;4.43;;;;;;;8.50;74.18;101777.22;5003577;28;20497;-42
2021/11/09 00:32:07;;;;;;;6.10;3.92;;;;;;;8.47;74.20;101771.91;4992211;28;20035;-42
2021/11/09 00:34:35;;;;;;;6.68;4.30;;;;;;;8.48;74.09;101771.06;4992919;28;20149;-41
2021/11/09 00:37:01;;;;;;;4.63;3.83;;;;;;;8.49;74.21;101780.72;4993302;28;20030;-42
2021/11/09 00:39:26;;;;;;;5.95;4.60;;;;;;;8.50;74.12;101776.34;4994148;28;20034;-42
2021/11/09 00:41:51;;;;;;;3.90;3.47;;;;;;;8.49;74.04;101775.47;4992318;28;20109;-42
2021/11/09 00:44:17;;;;;;;4.35;3.92;;;;;;;8.48;74.20;101778.94;4992439;28;20023;-42
2021/11/09 00:46:43;;;;;;;4.90;4.40;;;;;;;8.48;74.21;101781.59;4992417;28;20030;-42
2021/11/09 00:49:09;;;;;;;4.32;3.92;;;;;;;8.48;73.86;101771.94;5009422;28;20061;-42
2021/11/09 00:51:34;;;;;;;5.78;4.22;;;;;;;8.48;74.13;101786.84;5011536;28;20405;-42
2021/11/09 00:54:00;;;;;;;5.43;4.38;;;;;;;8.48;74.08;101784.22;5011590;28;20037;-42
2021/11/09 00:56:27;;;;;;;4.75;3.72;;;;;;;8.48;74.16;101784.22;5001461;28;20038;-42
2021/11/09 00:58:53;;;;;;;5.75;4.22;;;;;;;8.49;74.11;101791.22;4998046;28;20036;-42
2021/11/09 01:01:18;;;;;;;4.55;3.90;;;;;;;8.49;74.21;101791.22;5015045;28;20112;-42
2021/11/09 01:03:44;;;;;;;5.95;4.28;;;;;;;8.47;74.25;101788.56;5013491;28;20478;-42
2021/11/09 01:06:09;;;;;;;5.53;4.15;;;;;;;8.47;74.13;101787.69;5011226;28;20054;-42
2021/11/09 01:08:34;;;;;;;4.53;3.53;;;;;;;8.48;74.12;101790.34;5000735;28;20046;-42
2021/11/09 01:11:00;;;;;;;4.15;3.45;;;;;;;8.47;74.23;101796.47;5015451;28;20036;-42
2021/11/09 01:13:26;;;;;;;4.28;3.70;;;;;;;8.48;74.20;101794.72;5015465;28;20022;-42
2021/11/09 01:15:53;;;;;;;5.28;3.97;;;;;;;8.47;74.34;101793.84;5007449;28;20031;-42
2021/11/09 01:18:25;;;;;;;5.82;4.07;;;;;;;8.47;74.11;101787.69;5000207;28;20072;-42
2021/11/09 01:20:51;;;;;;;5.65;3.80;;;;;;;8.46;74.27;101788.53;5007258;28;20060;-41
2021/11/09 01:23:19;;;;;;;4.00;3.58;;;;;;;8.47;74.06;101790.31;4994935;28;20034;-42
2021/11/09 01:25:44;;;;;;;4.45;4.00;;;;;;;8.46;74.21;101785.91;5002913;28;20025;-43
2021/11/09 01:28:10;;;;;;;5.78;4.25;;;;;;;8.47;74.17;101787.69;5002280;28;20036;-43
2021/11/09 01:30:39;;;;;;;5.40;4.38;;;;;;;8.46;74.13;101791.16;5001035;28;20506;-42
2021/11/09 01:33:05;;;;;;;4.97;4.03;;;;;;;8.45;74.18;101795.56;5009992;28;20076;-42
2021/11/09 01:35:31;;;;;;;6.07;4.55;;;;;;;8.46;73.94;101799.06;5010485;28;20100;-42
2021/11/09 01:37:56;;;;;;;4.90;3.92;;;;;;;8.46;74.21;101801.69;5000860;28;20037;-42
2021/11/09 01:40:24;;;;;;;6.30;4.20;;;;;;;8.46;74.17;101801.69;5008477;28;20030;-42
2021/11/09 01:42:50;;;;;;;5.88;4.30;;;;;;;8.45;74.14;101803.47;5001943;28;20398;-42
2021/11/09 01:45:17;;;;;;;5.80;3.90;;;;;;;8.46;74.19;101806.94;5006788;28;20125;-42
2021/11/09 01:47:44;;;;;;;4.63;3.92;;;;;;;8.46;74.26;101806.94;5004611;28;20030;-42
2021/11/09 01:50:11;;;;;;;4.35;3.88;;;;;;;8.46;74.13;101809.56;4999721;28;20025;-42
2021/11/09 01:52:37;;;;;;;5.72;3.78;;;;;;;8.45;74.26;101805.19;5006100;28;20062;-42
2021/11/09 01:55:05;;;;;;;5.38;4.20;;;;;;;8.45;74.09;101797.31;4999874;28;20054;-42
2021/11/09 01:57:31;;;;;;;5.40;4.03;;;;;;;8.45;74.05;101813.06;5006438;28;20026;-42
2021/11/09 02:00:10;;;;;;;4.53;3.78;;;;;;;8.43;74.18;101797.28;5014881;28;20072;-42
2021/11/09 02:02:35;;;;;;;4.68;4.07;;;;;;;8.45;74.24;101807.81;5012085;28;20026;-43
2021/11/09 02:05:01;;;;;;;4.97;4.28;;;;;;;8.45;74.17;101805.19;4998603;28;20022;-42
2021/11/09 02:07:27;;;;;;;4.20;3.38;;;;;;;8.44;74.07;101798.16;5001749;28;20034;-42
2021/11/09 02:09:52;;;;;;;4.68;4.28;;;;;;;8.45;74.25;101799.94;5003647;28;20030;-42
2021/11/09 02:12:17;;;;;;;5.32;4.10;;;;;;;8.45;74.19;101794.66;4995818;28;20031;-42
2021/11/09 02:14:43;;;;;;;5.60;3.88;;;;;;;8.44;74.19;101796.41;5000754;28;20042;-42
2021/11/09 02:17:09;;;;;;;4.53;3.50;;;;;;;8.43;73.97;101799.91;5009780;28;20034;-42
2021/11/09 02:19:35;;;;;;;6.95;4.00;;;;;;;8.44;74.39;101801.66;5000019;28;20022;-42
2021/11/09 02:22:01;;;;;;;4.47;4.07;;;;;;;8.44;74.23;101808.69;5007970;28;20061;-43
2021/11/09 02:24:26;;;;;;;4.95;3.80;;;;;;;8.44;74.15;101806.06;5008338;28;20053;-43
2021/11/09 02:26:51;;;;;;;5.82;4.43;;;;;;;8.43;74.05;101799.91;5009228;28;20062;-42
2021/11/09 02:29:17;;;;;;;6.32;4.63;;;;;;;8.42;74.18;101806.03;4995369;28;20030;-42
2021/11/09 02:31:42;;;;;;;5.10;3.75;;;;;;;8.42;74.10;101806.03;4994410;28;20089;-42
2021/11/09 02:34:08;;;;;;;5.05;4.15;;;;;;;8.42;74.18;101806.03;4996946;28;20624;-42
2021/11/09 02:36:33;;;;;;;5.25;3.78;;;;;;;8.44;74.34;101800.78;5003445;28;20028;-42
2021/11/09 02:38:59;;;;;;;5.95;4.18;;;;;;;8.43;74.09;101797.28;5000929;28;20033;-43
2021/11/09 02:41:24;;;;;;;5.00;3.50;;;;;;;8.43;74.24;101806.88;4998121;28;20037;-42
2021/11/09 02:43:51;;;;;;;4.80;4.18;;;;;;;8.43;74.16;101801.63;4995499;28;20083;-42
2021/11/09 02:46:31;;;;;;;5.38;3.78;;;;;;;8.43;74.18;101813.03;5006652;28;20541;-42
2021/11/09 02:49:05;;;;;;;4.53;4.03;;;;;;;8.42;74.18;101811.28;4993946;28;20449;-42
2021/11/09 02:54:11;;;;;;;6.63;4.38;;;;;;;8.43;74.12;101817.41;5007792;28;20033;-42
2021/11/09 02:59:27;;;;;;;5.70;3.92;;;;;;;8.40;74.31;101817.38;5012526;28;20103;-42
2021/11/09 03:07:22;;;;;;;4.88;3.65;;;;;;;8.40;74.39;101818.25;5003308;28;20158;-42
2021/11/09 03:09:55;;;;;;;4.97;4.40;;;;;;;8.41;74.17;101827.03;4996710;28;20121;-42
2021/11/09 03:12:21;;;;;;;4.63;4.20;;;;;;;8.41;73.97;101827.03;4998904;28;20030;-42
2021/11/09 03:14:47;;;;;;;5.15;3.67;;;;;;;8.41;74.13;101824.41;4994778;28;20125;-42
2021/11/09 03:17:22;;;;;;;5.50;4.30;;;;;;;8.41;74.27;101819.13;4995219;28;20046;-42
2021/11/09 03:19:58;;;;;;;5.85;3.83;;;;;;;8.41;74.13;101821.78;4999081;28;20033;-42
2021/11/09 03:47:11;;;;;;;7.32;4.03;;;;;;;8.39;74.25;101834.88;4991817;28;20544;-42
2021/11/09 03:49:38;;;;;;;4.50;3.72;;;;;;;8.39;74.33;101839.25;4999851;28;20030;-42
2021/11/09 03:52:10;;;;;;;4.85;4.15;;;;;;;8.39;74.22;101840.13;4998650;28;20022;-42
2021/11/09 03:54:36;;;;;;;6.22;4.35;;;;;;;8.39;73.95;101847.13;5004601;28;20038;-42
2021/11/09 03:57:18;;;;;;;5.82;4.40;;;;;;;8.39;74.22;101855.00;4994686;28;20438;-42
2021/11/09 04:02:46;;;;;;;6.03;4.00;;;;;;;8.40;74.29;101854.19;5008387;28;20415;-42
2021/11/09 04:05:15;;;;;;;5.80;4.65;;;;;;;8.38;74.36;101861.13;4993567;28;20033;-43
2021/11/09 04:10:15;;;;;;;7.45;4.90;;;;;;;8.39;74.21;101862.91;4992662;28;20032;-43
2021/11/09 04:12:52;;;;;;;6.80;4.05;;;;;;;8.38;74.30;101867.28;5008727;28;20032;-43
2021/11/09 04:20:36;;;;;;;6.53;4.68;;;;;;;8.40;74.15;101867.31;5010271;28;20034;-42
2021/11/09 04:26:06;;;;;;;7.30;4.43;;;;;;;8.38;74.31;101866.41;5004856;28;20037;-42
2021/11/09 04:31:18;;;;;;;;;;;;;;;8.36;74.36;101873.38;5003262;28;20034;-44
2021/11/09 04:42:16;;;;;;;6.30;4.30;;;;;;;8.37;74.31;101878.63;4991934;28;20458;-44
2021/11/09 05:03:03;;;;;;;5.57;3.78;;;;;;;8.36;74.32;101894.41;5004958;28;20117;-43
2021/11/09 05:10:59;;;;;;;6.18;4.60;;;;;;;8.34;74.35;101903.13;5009433;28;20037;-44
2021/11/09 05:13:25;;;;;;;6.13;4.30;;;;;;;8.36;74.23;101911.06;5002216;28;20492;-44
2021/11/09 05:15:50;;;;;;;6.40;4.07;;;;;;;8.37;74.15;101914.59;4996907;28;20026;-44
2021/11/09 05:18:16;;;;;;;6.03;4.15;;;;;;;8.36;74.30;101916.31;4999228;28;20030;-43
2021/11/09 05:20:41;;;;;;;4.97;3.95;;;;;;;8.36;74.34;101921.56;5011846;28;20600;-44
2021/11/09 05:23:07;;;;;;;7.20;4.57;;;;;;;8.37;74.25;101927.72;5011724;28;20029;-44
2021/11/09 05:25:32;;;;;;;4.80;3.83;;;;;;;8.36;74.10;101915.44;5010897;28;20029;-44
2021/11/09 05:27:58;;;;;;;5.85;4.55;;;;;;;8.37;74.33;101925.09;5011722;28;20030;-44
2021/11/09 05:30:24;;;;;;;5.25;4.13;;;;;;;8.36;74.25;101924.19;5009914;28;20022;-44
2021/11/09 05:32:51;;;;;;;5.70;3.78;;;;;;;8.36;74.14;101931.22;5007534;28;20026;-44
2021/11/09 05:35:17;;;;;;;7.72;4.22;;;;;;;8.36;74.34;101928.59;4995005;28;20054;-44
2021/11/09 05:37:45;;;;;;;6.15;4.65;;;;;;;8.36;74.23;101937.34;5001476;28;20056;-44
2021/11/09 05:40:12;;;;;;;8.38;4.15;;;;;;;8.36;74.34;101932.09;5003110;28;20046;-44
2021/11/09 05:42:38;;;;;;;6.97;4.32;;;;;;;8.36;74.23;101933.84;4995587;28;20486;-44
2021/11/09 05:45:05;;;;;;;5.63;4.00;;;;;;;8.34;74.21;101945.19;5008969;28;20040;-44
2021/11/09 05:47:30;;;;;;;4.15;3.75;;;;;;;8.34;74.18;101945.19;4997764;28;20033;-44
2021/11/09 05:49:57;;;;;;;5.22;4.43;;;;;;;8.36;74.25;101944.38;4995923;28;20026;-44
2021/11/09 05:52:22;;;;;;;5.13;4.00;;;;;;;8.33;74.35;101951.31;4994489;28;20110;-45
2021/11/09 05:54:48;;;;;;;7.50;4.25;;;;;;;8.35;74.27;101951.34;4997146;28;20022;-45
2021/11/09 05:57:13;;;;;;;5.03;4.15;;;;;;;8.36;74.25;101962.75;5000017;28;20029;-44
2021/11/09 05:59:38;;;;;;;5.70;4.30;;;;;;;8.34;74.39;101962.72;5010245;28;20137;-44
2021/11/09 06:02:04;;;;;;;6.05;4.47;;;;;;;8.33;74.10;101964.47;5012558;28;20037;-44
2021/11/09 06:04:29;;;;;;;7.65;4.18;;;;;;;8.35;74.02;101964.50;5013210;28;20398;-44
2021/11/09 06:06:54;;;;;;;5.38;4.10;;;;;;;8.34;74.02;101971.47;5014748;28;20152;-44
2021/11/09 06:09:20;;;;;;;5.25;3.95;;;;;;;8.35;74.35;101977.63;5005264;28;20398;-44
2021/11/09 06:11:45;;;;;;;5.97;4.10;;;;;;;8.34;74.23;101976.75;5002658;28;20033;-44
2021/11/09 06:14:10;;;;;;;5.47;4.43;;;;;;;8.33;73.86;101974.97;4995368;28;20030;-44
2021/11/09 06:16:37;;;;;;;6.95;4.70;;;;;;;8.35;74.28;101982.91;4998424;28;20030;-44
2021/11/09 06:19:04;;;;;;;5.43;4.38;;;;;;;8.33;74.25;101979.34;5013829;28;20025;-44
2021/11/09 06:21:29;;;;;;;6.07;4.35;;;;;;;8.33;74.33;101980.22;5006352;28;20088;-44
2021/11/09 06:23:55;;;;;;;5.32;4.40;;;;;;;8.34;74.27;101987.25;5008412;28;20490;-44
2021/11/09 06:26:21;;;;;;;7.05;4.25;;;;;;;8.32;74.43;101996.88;4997370;28;20042;-44
2021/11/09 06:28:47;;;;;;;6.85;4.13;;;;;;;8.34;74.30;101996.91;4994867;28;20026;-44
2021/11/09 06:31:13;;;;;;;5.25;4.07;;;;;;;8.34;74.18;102003.03;4994853;28;20038;-44
2021/11/09 06:33:38;;;;;;;5.43;4.05;;;;;;;8.33;74.20;102006.53;4999035;28;20034;-44
2021/11/09 06:36:04;;;;;;;5.60;4.88;;;;;;;8.33;74.16;102013.50;5009361;28;20022;-45
2021/11/09 06:38:29;;;;;;;5.32;4.35;;;;;;;8.33;74.25;102022.28;4997366;28;20032;-44
2021/11/09 06:40:54;;;;;;;7.05;4.80;;;;;;;8.32;74.42;102025.78;5013011;28;20057;-44
2021/11/09 06:43:19;;;;;;;6.63;4.45;;;;;;;8.33;74.10;102027.56;5012715;28;20026;-44
2021/11/09 06:45:46;;;;;;;7.95;4.82;;;;;;;8.33;74.30;102035.44;5013909;28;20037;-44
2021/11/09 06:48:12;;;;;;;5.45;4.47;;;;;;;8.33;74.19;102030.19;5014066;28;20095;-44
2021/11/09 06:50:38;;;;;;;5.10;4.25;;;;;;;8.33;74.42;102037.16;5004174;28;20382;-44
2021/11/09 06:53:04;;;;;;;6.97;4.60;;;;;;;8.35;74.25;102046.00;4993376;28;20097;-44
2021/11/09 06:55:29;;;;;;;8.23;4.47;;;;;;;8.33;74.33;102038.06;4994282;28;20038;-43
2021/11/09 06:57:55;;;;;;;6.80;4.70;;;;;;;8.34;74.28;102054.75;4994694;28;20516;-45
2021/11/09 07:00:23;;;;;;;5.88;4.88;;;;;;;8.33;74.28;102053.84;4993777;28;20038;-44
2021/11/09 07:02:49;;;;;;;6.78;4.82;;;;;;;8.32;74.34;102059.97;4994415;28;20026;-44
2021/11/09 07:05:14;;;;;;;6.13;4.82;;;;;;;8.32;74.25;102062.59;5001942;28;20061;-44
2021/11/09 07:07:42;;;;;;;5.93;4.80;;;;;;;8.33;74.01;102071.34;5013859;28;20502;-44
2021/11/09 07:10:09;;;;;;;4.20;3.65;;;;;;;8.33;74.02;102069.63;5012174;28;20021;-44
2021/11/09 07:12:36;;;;;;;7.88;4.90;;;;;;;8.32;74.27;102067.84;5000731;28;20033;-44
2021/11/09 07:15:01;;;;;;;5.15;4.20;;;;;;;8.32;74.23;102072.19;4993801;28;20041;-44
2021/11/09 07:17:26;;;;;;;5.55;4.82;;;;;;;8.32;74.10;102082.72;4993964;28;20030;-44
2021/11/09 07:19:52;;;;;;;7.57;4.50;;;;;;;8.32;74.36;102078.38;4994376;28;20030;-43
2021/11/09 07:22:19;;;;;;;7.22;4.75;;;;;;;8.31;74.35;102076.56;4994164;28;20030;-44
2021/11/09 07:24:45;;;;;;;6.15;4.53;;;;;;;8.31;74.29;102076.56;4993694;28;20030;-44
2021/11/09 07:27:11;;;;;;;5.97;4.85;;;;;;;8.29;74.45;102083.53;4992825;28;20023;-44
2021/11/09 07:29:36;;;;;;;6.82;4.70;;;;;;;8.31;74.20;102081.81;4992925;28;20026;-44
2021/11/09 07:32:03;;;;;;;5.20;4.70;;;;;;;8.30;74.51;102089.69;4993276;28;20026;-44
2021/11/09 07:34:28;;;;;;;4.90;4.40;;;;;;;8.31;74.33;102086.22;5001739;28;20022;-44
2021/11/09 07:36:53;;;;;;;7.32;4.90;;;;;;;8.29;74.40;102091.44;5012547;28;20385;-43
2021/11/09 07:39:20;;;;;;;6.38;4.85;;;;;;;8.30;74.21;102097.59;4997974;28;20049;-44
2021/11/09 07:41:46;;;;;;;6.35;4.55;;;;;;;8.31;74.22;102100.22;4993076;28;20068;-44
2021/11/09 07:44:14;;;;;;;5.43;4.93;;;;;;;8.31;74.36;102096.72;4992092;28;20034;-44
2021/11/09 07:46:40;;;;;;;6.80;4.97;;;;;;;8.30;74.36;102101.09;4992857;28;20037;-44
2021/11/09 07:49:05;;;;;;;7.03;4.55;;;;;;;8.30;74.30;102101.09;4992523;28;20399;-44
2021/11/09 07:51:35;;;;;;;6.72;4.75;;;;;;;8.30;74.20;102103.72;4992929;28;20038;-44
2021/11/09 07:54:01;;;;;;;7.78;5.15;;;;;;;8.30;74.15;102111.59;4992711;28;20022;-44
2021/11/09 07:56:35;;;;;;;7.57;4.50;;;;;;;8.31;74.30;102110.75;4992803;28;20537;-44
2021/11/09 08:01:48;;;;;;;5.28;4.72;;;;;;;8.30;74.22;102108.97;4992698;28;20088;-44
2021/11/09 08:07:00;;;;;;;6.95;5.38;;;;;;;8.31;74.30;102121.25;4992572;28;20085;-44
2021/11/09 08:09:29;;;;;;;10.02;5.18;;;;;;;8.29;74.27;102120.34;4991440;28;20085;-44
2021/11/09 08:11:59;;;;;;;7.55;5.38;;;;;;;8.29;74.28;102122.97;4995920;28;20022;-44
2021/11/09 08:14:25;;;;;;;6.80;5.10;;;;;;;8.30;74.36;102122.13;5004128;28;20026;-44
2021/11/09 08:17:00;;;;;;;6.82;5.85;;;;;;;8.30;74.31;102116.84;4993037;28;20125;-44
2021/11/09 08:19:32;;;;;;;8.30;5.82;;;;;;;8.31;74.20;102121.25;5009327;28;20061;-44
2021/11/09 08:22:07;;;;;;;6.43;5.43;;;;;;;8.31;74.32;102118.63;5011785;28;20076;-43
2021/11/09 08:24:42;;;;;;;9.20;5.25;;;;;;;8.32;74.30;102117.78;5010851;28;20076;-44
2021/11/09 08:27:11;;;;;;;6.18;5.53;;;;;;;8.31;74.57;102113.38;5011726;28;20394;-43
2021/11/09 08:29:37;;;;;;;6.43;5.00;;;;;;;8.31;74.11;102113.38;4998835;28;20482;-43
2021/11/09 08:32:03;;;;;;;9.65;5.10;;;;;;;8.32;74.25;102114.25;5007624;28;20077;-44
2021/11/09 08:34:31;;;;;;;6.05;4.55;;;;;;;8.33;74.24;102116.03;5007673;28;20142;-43
2021/11/09 08:37:00;;;;;;;7.45;5.35;;;;;;;8.34;74.24;102118.69;4998826;28;20022;-44
2021/11/09 08:39:37;;;;;;;6.90;5.50;;;;;;;8.34;74.26;102115.22;4992111;28;20030;-44
2021/11/09 08:44:37;;;;;;;5.93;5.15;;;;;;;8.33;74.16;102116.94;4991962;28;20022;-44
2021/11/09 08:47:06;;;;;;;5.82;4.85;;;;;;;8.34;74.28;102118.69;5004648;28;20090;-43
2021/11/09 08:49:32;;;;;;;7.75;5.28;;;;;;;8.35;74.31;102111.72;5008367;28;20046;-44
2021/11/09 08:52:01;;;;;;;9.55;5.63;;;;;;;8.35;74.26;102109.09;5011657;28;20410;-44
2021/11/09 08:54:33;;;;;;;7.68;5.75;;;;;;;8.36;74.15;102107.34;5010055;28;20371;-44
2021/11/09 09:05:00;;;;;;;8.45;6.80;;;;;;;8.38;74.40;102121.41;5011850;28;20040;-44
2021/11/09 09:07:29;;;;;;;7.72;5.05;;;;;;;8.41;74.16;102124.13;5011439;28;20485;-44
2021/11/09 09:09:56;;;;;;;7.50;5.75;;;;;;;8.42;74.21;102115.38;5011404;28;20030;-44
2021/11/09 09:12:25;;;;;;;7.88;6.13;;;;;;;8.42;74.27;102115.38;5010245;28;20030;-43
2021/11/09 09:14:57;;;;;;;11.05;6.05;;;;;;;8.43;74.31;102125.03;5011447;28;20049;-43
2021/11/09 09:17:24;;;;;;;7.93;5.75;;;;;;;8.44;74.34;102125.06;5013729;28;20056;-44
2021/11/09 09:19:56;;;;;;;9.88;5.88;;;;;;;8.45;74.39;102120.69;5015057;28;20030;-44
2021/11/09 09:28:56;;;;;;;7.30;5.75;;;;;;;8.46;74.29;102133.00;5015250;28;20104;-44
2021/11/09 09:52:09;;;;;;;8.10;5.30;;;;;;;8.50;74.33;102139.22;5015093;28;20056;-44
2021/11/09 09:53:24;;;;;;;7.13;5.10;;;;;;;8.51;74.13;102136.63;5015082;28;20735;-44
2021/11/09 09:55:54;;;;;;;6.95;5.78;;;;;;;8.52;74.18;102134.88;5014650;28;20037;-44
2021/11/09 09:58:22;;;;;;;8.77;5.57;;;;;;;8.53;74.25;102137.56;5013655;28;20044;-44
2021/11/09 10:00:48;;;;;;;9.65;6.63;;;;;;;8.52;74.26;102138.41;5014513;28;20022;-44
2021/11/09 10:03:13;;;;;;;5.78;4.93;;;;;;;8.54;74.25;102135.84;5014538;28;20036;-44
2021/11/09 10:05:41;;;;;;;6.93;5.50;;;;;;;8.53;74.19;102140.19;5009838;28;20030;-42
2021/11/09 10:08:16;;;;;;;6.88;5.25;;;;;;;8.55;74.26;102128.00;5007320;28;20041;-42
2021/11/09 10:10:46;;;;;;;10.35;6.07;;;;;;;8.55;74.28;102135.88;5014380;28;20026;-42
2021/11/09 10:13:16;;;;;;;7.50;5.93;;;;;;;8.57;74.15;102126.25;5014226;28;20040;-42
2021/11/09 10:15:47;;;;;;;7.93;5.47;;;;;;;8.57;74.34;102131.53;5014423;28;20037;-42
2021/11/09 10:18:15;;;;;;;8.00;6.13;;;;;;;8.57;74.29;102136.78;5014334;28;20040;-41
2021/11/09 10:20:45;;;;;;;7.90;5.85;;;;;;;8.57;74.35;102130.66;4997676;28;20564;-42
2021/11/09 10:23:14;;;;;;;7.10;5.60;;;;;;;8.58;74.33;102133.28;4996375;28;20400;-42
2021/11/09 10:25:40;;;;;;;7.13;6.15;;;;;;;8.58;74.37;102133.28;4994219;28;20471;-44
2021/11/09 10:28:17;;;;;;;9.07;6.00;;;;;;;8.60;74.34;102141.22;4994038;28;20037;-42
2021/11/09 10:30:55;;;;;;;7.78;6.45;;;;;;;8.60;74.36;102136.88;4994542;28;20057;-42
2021/11/09 10:33:25;;;;;;;7.10;5.60;;;;;;;8.61;74.27;102135.13;4994521;28;20108;-43
2021/11/09 10:35:52;;;;;;;7.65;5.93;;;;;;;8.62;74.54;102125.47;4993970;28;20053;-43
2021/11/09 10:38:17;;;;;;;7.20;5.03;;;;;;;8.63;74.39;102135.16;4993873;28;20033;-46
2021/11/09 10:40:49;;;;;;;8.82;6.40;;;;;;;8.64;74.40;102131.69;4994273;28;20026;-42
2021/11/09 10:43:14;;;;;;;;;;;;;;;8.64;74.18;102123.78;4993466;28;20084;-43
2021/11/09 10:45:40;;;;;;;7.40;5.07;;;;;;;8.62;74.43;102121.13;4994036;28;19909;-42
2021/11/09 10:48:08;;;;;;;8.05;5.70;;;;;;;8.64;74.55;102126.41;4993014;28;20049;-41
2021/11/09 10:50:43;;;;;;;9.73;5.88;;;;;;;8.67;74.40;102126.50;4998711;28;20113;-42
2021/11/09 10:56:20;;;;;;;9.45;5.63;;;;;;;8.68;74.36;102123.00;5012317;28;20053;-42
2021/11/09 11:04:09;;;;;;;6.00;5.38;;;;;;;8.71;74.62;102128.34;4993979;28;20042;-42
2021/11/09 11:06:36;;;;;;;7.93;5.93;;;;;;;8.72;74.51;102124.84;4993805;28;20497;-43
2021/11/09 11:09:11;;;;;;;7.60;5.00;;;;;;;8.73;74.34;102131.88;4993294;28;20113;-42
2021/11/09 11:11:48;;;;;;;7.43;5.38;;;;;;;8.75;74.42;102129.28;4992409;28;20113;-42
2021/11/09 11:14:16;;;;;;;8.85;5.88;;;;;;;8.73;74.50;102122.25;4993649;28;20097;-41
2021/11/09 11:16:47;;;;;;;7.60;5.90;;;;;;;8.75;74.44;102124.91;4993707;28;20110;-41
2021/11/09 11:19:14;;;;;;;8.38;5.28;;;;;;;8.76;74.39;102121.41;4975660;28;20501;-43
2021/11/09 11:21:40;;;;;;;6.88;5.20;;;;;;;8.78;74.43;102131.97;4993442;28;20517;-42
2021/11/09 11:24:09;;;;;;;6.25;4.93;;;;;;;8.79;74.40;102132.00;4993247;28;20105;-42
2021/11/09 11:26:36;;;;;;;5.90;4.80;;;;;;;8.80;74.36;102133.78;4993423;28;20112;-42
2021/11/09 11:29:05;;;;;;;7.20;5.00;;;;;;;8.80;74.35;102128.53;4992051;28;20029;-42
2021/11/09 11:31:36;;;;;;;7.63;5.15;;;;;;;8.82;74.11;102120.66;4993333;28;20104;-42
2021/11/09 11:34:02;;;;;;;6.68;5.28;;;;;;;8.82;74.31;102121.56;4992943;28;20034;-42
2021/11/09 11:36:30;;;;;;;6.47;5.03;;;;;;;8.82;74.41;102118.94;4993246;28;20386;-42
2021/11/09 11:39:01;;;;;;;8.50;5.90;;;;;;;8.83;74.41;102123.34;4998878;28;20044;-42
2021/11/09 11:41:30;;;;;;;7.85;4.75;;;;;;;8.85;74.47;102118.09;5007961;28;20026;-42
2021/11/09 11:43:58;;;;;;;9.30;6.18;;;;;;;8.86;74.33;102114.59;4992644;28;20030;-43
2021/11/09 11:46:32;;;;;;;7.38;5.60;;;;;;;8.88;74.37;102114.66;4993887;28;20038;-43
2021/11/09 11:49:13;;;;;;;8.40;5.55;;;;;;;8.87;74.31;102103.22;5007252;28;20049;-43
2021/11/09 11:51:58;;;;;;;6.95;5.28;;;;;;;8.88;74.26;102104.13;4992901;28;20041;-42
2021/11/09 11:54:43;;;;;;;7.30;5.15;;;;;;;8.90;74.32;102102.44;4992907;28;20033;-42
2021/11/09 11:57:09;;;;;;;7.28;5.25;;;;;;;8.90;74.42;102102.44;4992684;28;20054;-41
2021/11/09 11:59:39;;;;;;;6.10;5.18;;;;;;;8.90;74.56;102098.03;4991337;28;20029;-42
2021/11/09 12:02:06;;;;;;;8.20;5.60;;;;;;;8.92;74.51;102090.16;4993063;28;20026;-42
2021/11/09 12:04:41;;;;;;;11.38;6.28;;;;;;;8.93;74.51;102091.94;4991483;28;20022;-41
2021/11/09 12:07:18;;;;;;;7.25;4.97;;;;;;;8.93;74.48;102091.94;4992568;28;20034;-42
2021/11/09 12:09:46;;;;;;;7.25;5.55;;;;;;;8.93;74.45;102086.66;4992337;28;20106;-42
2021/11/09 12:12:11;;;;;;;8.13;5.63;;;;;;;8.95;74.27;102087.59;4992400;28;20054;-42
2021/11/09 12:15:07;;;;;;;7.73;5.47;;;;;;;8.97;74.35;102085.91;4991143;28;20121;-42
2021/11/09 12:17:43;;;;;;;7.05;5.70;;;;;;;8.97;74.38;102083.28;4907642;28;20032;-42
2021/11/09 12:20:22;;;;;;;6.85;5.80;;;;;;;8.97;74.54;102083.28;5007007;28;20038;-42
2021/11/09 12:22:55;;;;;;;6.32;5.22;;;;;;;8.96;74.57;102082.38;5009275;28;20103;-41
2021/11/09 12:25:30;;;;;;;7.53;5.68;;;;;;;8.98;74.33;102080.66;5012091;28;20033;-41
2021/11/09 12:27:56;;;;;;;7.53;5.40;;;;;;;9.00;74.61;102079.81;5011859;28;20028;-44
2021/11/09 12:30:36;;;;;;;8.15;5.40;;;;;;;9.03;74.48;102080.75;5011798;28;20121;-43
2021/11/09 12:33:24;;;;;;;6.55;5.93;;;;;;;9.02;74.31;102086.88;5011646;28;20482;-43
2021/11/09 12:36:02;;;;;;;6.68;5.85;;;;;;;9.03;74.37;102083.38;5010364;28;20042;-43
2021/11/09 12:38:36;;;;;;;7.40;5.70;;;;;;;9.03;74.39;102072.84;5010118;28;20026;-42
2021/11/09 12:41:28;;;;;;;7.95;5.45;;;;;;;9.06;74.31;102079.91;4992413;28;20030;-42
2021/11/09 12:44:08;;;;;;;11.10;5.93;;;;;;;9.08;74.46;102070.31;5010770;28;20030;-42
2021/11/09 12:46:39;;;;;;;6.72;5.53;;;;;;;9.07;74.29;102079.09;5011750;28;20153;-42
2021/11/09 12:49:10;;;;;;;9.55;5.18;;;;;;;9.07;74.40;102074.69;4992017;28;20041;-42
2021/11/09 12:51:38;;;;;;;7.30;5.32;;;;;;;9.09;74.36;102065.09;4995658;28;20057;-42
2021/11/09 12:54:06;;;;;;;7.15;5.10;;;;;;;9.11;74.17;102065.13;4996329;28;20551;-42
2021/11/09 12:56:33;;;;;;;8.48;5.68;;;;;;;9.11;74.31;102055.47;5009960;28;20485;-46
2021/11/09 12:59:27;;;;;;;7.75;5.55;;;;;;;9.15;74.40;102066.06;5014327;28;20029;-42
2021/11/09 13:02:29;;;;;;;8.75;5.47;;;;;;;9.13;74.37;102059.91;5014858;28;20049;-43
2021/11/09 13:04:48;;;;;;;6.88;5.50;;;;;;;9.14;74.57;102059.88;5012491;28;20038;-42
2021/11/09 13:07:37;;;;;;;8.63;6.47;;;;;;;9.15;74.54;102051.16;5014434;28;20022;-42
2021/11/09 13:10:44;;;;;;;8.40;5.68;;;;;;;9.16;74.36;102058.19;5001067;28;20032;-42
2021/11/09 13:13:02;;;;;;;8.30;5.80;;;;;;;9.16;74.41;102049.41;5007437;28;20050;-42
2021/11/09 13:15:27;;;;;;;9.20;6.05;;;;;;;9.18;74.47;102048.59;5015319;28;20033;-42
2021/11/09 13:18:02;;;;;;;8.60;5.90;;;;;;;9.18;74.46;102043.31;5000386;28;20038;-42
2021/11/09 13:22:59;;;;;;;10.43;6.57;;;;;;;9.18;74.12;102043.31;5015515;28;20092;-42
2021/11/09 13:25:55;;;;;;;7.85;5.45;;;;;;;9.22;74.24;102058.31;5012647;28;20036;-42
2021/11/09 13:28:28;;;;;;;10.60;5.50;;;;;;;9.21;74.18;102042.50;5011936;28;20029;-42
2021/11/09 13:30:56;;;;;;;7.93;5.65;;;;;;;9.21;74.26;102043.34;5013258;28;20056;-43
2021/11/09 13:33:23;;;;;;;7.88;5.97;;;;;;;9.22;74.26;102036.34;5011350;28;20029;-42
2021/11/09 13:35:49;;;;;;;6.82;5.15;;;;;;;9.23;74.27;102039.03;5012897;28;20485;-42
2021/11/09 13:38:19;;;;;;;6.25;5.28;;;;;;;9.24;74.34;102043.41;5000752;28;20035;-43
2021/11/09 13:40:51;;;;;;;8.75;5.68;;;;;;;9.23;73.96;102038.13;5012874;28;20075;-43
2021/11/09 13:43:20;;;;;;;9.23;6.18;;;;;;;9.26;74.19;102045.19;5011924;28;20485;-41
2021/11/09 13:45:46;;;;;;;6.13;5.53;;;;;;;9.26;74.30;102037.28;5012537;28;20026;-43
2021/11/09 13:48:20;;;;;;;7.53;5.53;;;;;;;9.27;74.08;102039.94;4999921;28;20042;-43
2021/11/09 13:50:47;;;;;;;6.75;5.50;;;;;;;9.27;74.11;102041.72;4992750;28;20256;-42
2021/11/09 13:53:13;;;;;;;9.40;5.38;;;;;;;9.26;74.24;102030.28;4992706;28;20026;-42
2021/11/09 13:55:42;;;;;;;7.32;6.20;;;;;;;9.27;74.22;102039.94;4991257;28;20521;-44
2021/11/09 13:58:10;;;;;;;10.30;6.70;;;;;;;9.29;74.00;102037.34;4996325;28;20018;-42
2021/11/09 14:00:48;;;;;;;7.28;5.68;;;;;;;9.28;74.25;102036.47;4992390;28;20485;-45
2021/11/09 14:03:32;;;;;;;6.32;4.82;;;;;;;9.28;74.03;102036.47;4991659;28;20030;-43